Time;durP1;ratioP1;P1;durP2;ratioP2;P2;SDS_P1;SDS_P2;PMS_P1;PMS_P2;Temp;Humidity;BMP_temperature;BMP_pressure;BME280_temperature;BME280_humidity;BME280_pressure;Samples;Min_cycle;Max_cycle;Signal;HPM_P1;HPM_P2
2023/05/08 00:00:31;;;;;;;5.70;5.07;;;19.10;67.30;;;;;;5012895;28;20050;-48
2023/05/08 00:03:00;;;;;;;4.93;4.57;;;19.10;67.30;;;;;;5013151;28;20433;-48
2023/05/08 00:05:29;;;;;;;5.27;4.80;;;19.10;67.40;;;;;;5012603;28;20104;-50
2023/05/08 00:08:00;;;;;;;5.05;4.55;;;19.00;67.20;;;;;;5011501;28;20725;-48
2023/05/08 00:10:30;;;;;;;5.25;4.88;;;19.00;67.30;;;;;;5011526;28;20052;-52
2023/05/08 00:12:57;;;;;;;5.97;5.53;;;18.90;67.30;;;;;;5012965;28;20077;-50
2023/05/08 00:15:30;;;;;;;7.05;6.50;;;18.90;67.80;;;;;;5014919;28;20049;-48
2023/05/08 00:17:57;;;;;;;6.20;5.70;;;18.90;68.20;;;;;;5011064;28;20639;-49
2023/05/08 00:20:26;;;;;;;6.47;5.97;;;18.90;68.60;;;;;;5010858;28;20076;-48
2023/05/08 00:22:54;;;;;;;6.13;5.55;;;18.80;68.90;;;;;;5013995;28;20052;-50
2023/05/08 00:25:24;;;;;;;5.55;5.13;;;18.80;68.60;;;;;;5019589;28;20567;-48
2023/05/08 00:27:50;;;;;;;5.60;5.10;;;18.80;68.60;;;;;;5003822;28;20038;-49
2023/05/08 00:30:30;;;;;;;5.93;5.43;;;18.80;68.40;;;;;;4994059;28;20526;-49
2023/05/08 00:32:59;;;;;;;5.35;4.95;;;18.80;68.40;;;;;;4991883;28;20049;-50
2023/05/08 00:35:26;;;;;;;6.25;5.75;;;18.70;68.00;;;;;;5013061;28;20042;-51
2023/05/08 00:37:52;;;;;;;6.05;5.55;;;18.70;67.90;;;;;;5011563;28;20046;-51
2023/05/08 00:40:20;;;;;;;6.13;5.63;;;18.70;67.80;;;;;;4993612;28;20158;-52
2023/05/08 00:42:49;;;;;;;4.85;4.45;;;18.70;67.70;;;;;;5020497;28;20041;-51
2023/05/08 00:45:16;;;;;;;5.63;5.22;;;18.60;67.50;;;;;;5018765;28;20056;-52
2023/05/08 00:47:42;;;;;;;5.25;4.85;;;18.50;67.30;;;;;;5010407;28;20549;-51
2023/05/08 00:50:09;;;;;;;6.50;5.13;;;18.50;67.30;;;;;;5011295;28;20046;-51
2023/05/08 00:52:39;;;;;;;5.72;5.22;;;18.50;67.30;;;;;;5029724;28;20045;-49
2023/05/08 00:55:06;;;;;;;5.80;5.30;;;18.40;67.10;;;;;;5026727;28;20042;-51
2023/05/08 00:57:34;;;;;;;5.05;4.60;;;18.40;67.00;;;;;;5012433;28;20121;-49
2023/05/08 01:00:03;;;;;;;6.32;4.18;;;18.30;67.00;;;;;;4997277;28;20073;-49
2023/05/08 01:02:36;;;;;;;4.97;4.57;;;18.20;66.80;;;;;;5030920;28;20037;-50
2023/05/08 01:05:03;;;;;;;5.00;4.45;;;18.20;66.70;;;;;;5022115;28;20056;-49
2023/05/08 01:07:33;;;;;;;5.88;5.45;;;18.10;66.70;;;;;;4994543;28;20049;-48
2023/05/08 01:10:03;;;;;;;5.47;5.07;;;18.10;66.80;;;;;;5010736;28;20077;-48
2023/05/08 01:13:10;;;;;;;5.63;5.15;;;18.00;66.60;;;;;;5016911;28;20052;-49
2023/05/08 01:15:53;;;;;;;5.38;4.95;;;17.90;66.90;;;;;;5010905;28;20034;-49
2023/05/08 01:18:37;;;;;;;5.78;5.25;;;17.90;66.70;;;;;;5006044;28;20046;-46
2023/05/08 01:21:42;;;;;;;6.78;6.10;;;17.80;66.70;;;;;;4993736;28;20077;-49
2023/05/08 01:24:57;;;;;;;5.35;4.95;;;17.70;66.70;;;;;;4986899;28;20128;-48
2023/05/08 01:27:34;;;;;;;5.13;4.72;;;17.70;66.60;;;;;;4965623;28;20104;-49
2023/05/08 01:30:36;;;;;;;6.38;5.78;;;17.60;66.30;;;;;;5010416;28;20046;-50
2023/05/08 01:33:19;;;;;;;5.65;5.15;;;17.50;66.60;;;;;;5016219;28;20096;-48
2023/05/08 01:35:57;;;;;;;5.38;4.97;;;17.50;66.70;;;;;;5008680;28;20052;-47
2023/05/08 01:38:46;;;;;;;6.53;6.05;;;17.40;66.70;;;;;;5009592;28;20737;-50
2023/05/08 01:41:33;;;;;;;6.38;5.88;;;17.30;66.60;;;;;;4988142;28;20113;-48
2023/05/08 01:44:23;;;;;;;5.53;5.13;;;17.30;66.60;;;;;;4993806;28;20053;-50
2023/05/08 01:46:53;;;;;;;5.72;5.13;;;17.20;66.90;;;;;;5010123;28;20046;-49
2023/05/08 01:49:26;;;;;;;6.40;5.47;;;17.10;66.40;;;;;;4992326;28;20104;-48
2023/05/08 01:51:59;;;;;;;5.50;5.10;;;17.20;66.60;;;;;;4993187;28;20145;-51
2023/05/08 01:54:28;;;;;;;5.28;4.88;;;17.10;66.50;;;;;;5010555;28;20041;-49
2023/05/08 01:57:00;;;;;;;5.68;5.10;;;17.00;66.50;;;;;;5009331;28;20096;-47
2023/05/08 01:59:29;;;;;;;6.10;5.47;;;17.00;66.50;;;;;;4991950;28;20046;-48
2023/05/08 02:01:57;;;;;;;6.07;5.53;;;17.00;66.70;;;;;;5010902;28;20041;-49
2023/05/08 02:04:33;;;;;;;5.60;5.20;;;16.90;66.80;;;;;;5012874;28;20056;-51
2023/05/08 02:07:00;;;;;;;;;;;16.90;66.90;;;;;;5003728;28;20048;-50
2023/05/08 02:09:28;;;;;;;4.63;4.30;;;16.90;66.90;;;;;;5007614;28;19928;-47
2023/05/08 02:11:58;;;;;;;5.45;4.95;;;16.90;66.80;;;;;;5001040;28;20057;-48
2023/05/08 02:14:30;;;;;;;5.32;4.93;;;16.80;67.00;;;;;;5009553;28;20045;-49
2023/05/08 02:17:05;;;;;;;5.22;4.82;;;16.80;67.30;;;;;;5006862;28;20046;-51
2023/05/08 02:19:33;;;;;;;5.22;4.82;;;16.80;67.40;;;;;;5005572;28;20051;-48
2023/05/08 02:22:01;;;;;;;5.97;5.43;;;16.80;67.60;;;;;;5024835;28;20080;-48
2023/05/08 02:24:35;;;;;;;5.65;5.15;;;16.80;67.70;;;;;;5008708;28;20046;-50
2023/05/08 02:27:02;;;;;;;5.13;4.68;;;16.80;67.90;;;;;;5021859;28;20041;-48
2023/05/08 02:29:30;;;;;;;6.13;5.63;;;16.80;67.90;;;;;;5012753;28;20050;-46
2023/05/08 02:32:04;;;;;;;5.43;4.95;;;16.80;68.20;;;;;;5014342;28;20045;-47
2023/05/08 02:34:31;;;;;;;6.10;5.50;;;16.80;68.50;;;;;;5008854;28;20556;-45
2023/05/08 02:37:02;;;;;;;5.60;5.20;;;16.80;68.90;;;;;;5000365;28;20133;-48
2023/05/08 02:39:34;;;;;;;6.05;5.18;;;16.90;69.30;;;;;;5010588;28;20037;-48
2023/05/08 02:42:03;;;;;;;6.20;5.70;;;16.90;69.60;;;;;;4992921;28;20045;-51
2023/05/08 02:44:32;;;;;;;6.85;6.25;;;16.90;69.70;;;;;;5009433;28;20414;-50
2023/05/08 02:47:13;;;;;;;7.13;6.43;;;17.00;69.90;;;;;;5006908;28;20085;-47
2023/05/08 02:49:54;;;;;;;6.43;5.88;;;17.10;70.40;;;;;;4990402;28;20405;-50
2023/05/08 02:52:28;;;;;;;6.18;5.72;;;17.20;70.60;;;;;;5008489;28;20172;-49
2023/05/08 02:55:09;;;;;;;6.50;5.88;;;17.20;70.30;;;;;;5009496;28;20564;-48
2023/05/08 02:58:03;;;;;;;7.43;6.35;;;17.20;70.30;;;;;;4987992;28;20038;-47
2023/05/08 03:00:55;;;;;;;7.65;7.05;;;17.30;70.70;;;;;;5009258;28;20042;-51
2023/05/08 03:03:29;;;;;;;7.10;6.50;;;17.40;70.80;;;;;;5004176;28;20070;-51
2023/05/08 03:06:01;;;;;;;7.63;6.93;;;17.40;70.20;;;;;;5009587;28;20042;-48
2023/05/08 03:08:33;;;;;;;7.32;6.65;;;17.40;70.30;;;;;;4991007;28;20045;-50
2023/05/08 03:11:08;;;;;;;7.88;7.18;;;17.50;70.40;;;;;;5009955;28;20042;-48
2023/05/08 03:13:39;;;;;;;6.78;6.18;;;17.50;70.40;;;;;;5009490;28;20491;-49
2023/05/08 03:16:24;;;;;;;6.10;5.70;;;17.60;70.40;;;;;;4987720;28;20050;-51
2023/05/08 03:19:00;;;;;;;6.60;6.00;;;17.60;70.60;;;;;;5011706;28;20126;-52
2023/05/08 03:21:33;;;;;;;6.97;6.38;;;17.60;70.40;;;;;;4993250;28;20536;-51
2023/05/08 03:24:02;;;;;;;8.02;7.22;;;17.70;70.30;;;;;;5011008;28;20073;-52
2023/05/08 03:26:29;;;;;;;9.30;8.30;;;17.70;70.40;;;;;;4994653;28;20050;-49
2023/05/08 03:28:59;;;;;;;13.18;8.50;;;17.70;70.50;;;;;;5010429;28;20046;-50
2023/05/08 03:31:31;;;;;;;13.00;10.23;;;17.80;70.80;;;;;;4993713;28;20049;-52
2023/05/08 03:34:09;;;;;;;18.13;12.23;;;17.80;71.10;;;;;;4994510;28;20518;-47
2023/05/08 03:36:41;;;;;;;18.95;12.85;;;17.80;71.30;;;;;;4994415;28;20045;-49
2023/05/08 03:39:12;;;;;;;16.70;12.60;;;17.80;71.40;;;;;;4994510;28;20121;-52
2023/05/08 03:41:39;;;;;;;20.52;14.43;;;17.90;71.50;;;;;;5009232;28;20061;-50
2023/05/08 03:44:16;;;;;;;20.83;14.02;;;17.90;71.70;;;;;;5015689;28;20136;-48
2023/05/08 03:46:49;;;;;;;22.05;15.52;;;18.00;72.60;;;;;;5018522;28;20093;-51
2023/05/08 03:49:23;;;;;;;19.30;14.27;;;18.00;72.40;;;;;;5026296;28;20041;-49
2023/05/08 03:51:54;;;;;;;23.48;14.25;;;18.00;72.40;;;;;;5015203;28;20176;-50
2023/05/08 03:54:24;;;;;;;27.35;18.08;;;18.00;72.30;;;;;;5002231;28;20045;-49
2023/05/08 03:56:53;;;;;;;29.40;18.05;;;18.10;72.60;;;;;;5011451;28;20050;-48
2023/05/08 03:59:21;;;;;;;27.40;19.42;;;18.10;72.90;;;;;;5011100;28;20042;-48
2023/05/08 04:02:05;;;;;;;25.35;18.77;;;18.10;72.90;;;;;;5029737;28;20088;-52
2023/05/08 04:04:44;;;;;;;27.35;19.02;;;18.10;73.80;;;;;;5000164;28;20100;-47
2023/05/08 04:07:38;;;;;;;24.92;19.25;;;18.20;73.90;;;;;;4994659;28;20474;-50
2023/05/08 04:10:20;;;;;;;22.60;17.98;;;18.20;74.00;;;;;;5013338;28;20117;-50
2023/05/08 04:13:03;;;;;;;22.77;19.08;;;18.20;73.60;;;;;;5012886;28;20050;-48
2023/05/08 04:15:37;;;;;;;21.33;18.52;;;18.20;73.50;;;;;;5012639;28;20084;-50
2023/05/08 04:18:08;;;;;;;24.20;19.48;;;18.20;73.10;;;;;;5007529;28;20065;-47
2023/05/08 04:20:46;;;;;;;24.15;19.92;;;18.30;73.30;;;;;;5012432;28;20044;-47
2023/05/08 04:23:19;;;;;;;22.15;18.85;;;18.30;73.60;;;;;;4992419;28;20554;-47
2023/05/08 04:25:52;;;;;;;23.60;19.35;;;18.30;73.20;;;;;;5008478;28;20749;-48
2023/05/08 04:28:22;;;;;;;28.40;21.00;;;18.30;73.10;;;;;;4994099;28;20579;-48
2023/05/08 04:30:52;;;;;;;42.50;22.00;;;18.40;73.20;;;;;;5010826;28;20042;-49
2023/05/08 04:33:23;;;;;;;;;;;18.40;73.30;;;;;;4997082;28;20049;-52
2023/05/08 04:35:51;;;;;;;57.42;21.38;;;18.50;73.60;;;;;;4992984;28;20376;-48
2023/05/08 04:38:20;;;;;;;36.38;19.88;;;18.50;72.70;;;;;;4994412;28;20042;-48
2023/05/08 04:40:49;;;;;;;42.05;20.45;;;18.50;73.10;;;;;;5007251;28;20112;-52
2023/05/08 04:43:18;;;;;;;35.60;20.85;;;18.50;73.10;;;;;;4992059;28;20391;-50
2023/05/08 04:45:49;;;;;;;46.00;19.90;;;18.50;73.20;;;;;;4991141;28;20046;-51
2023/05/08 04:48:17;;;;;;;33.45;19.77;;;18.50;73.20;;;;;;5009314;28;20052;-51
2023/05/08 04:50:46;;;;;;;25.23;20.60;;;18.50;73.40;;;;;;4993843;28;20137;-50
2023/05/08 04:53:22;;;;;;;26.50;19.15;;;18.50;73.40;;;;;;4991615;28;20053;-48
2023/05/08 04:55:58;;;;;;;38.83;20.17;;;18.60;73.50;;;;;;5012350;28;20376;-51
2023/05/08 04:58:27;;;;;;;35.72;19.67;;;18.60;73.60;;;;;;4993454;28;20510;-49
2023/05/08 05:00:56;;;;;;;29.17;19.88;;;18.60;73.60;;;;;;4994453;28;20498;-51
2023/05/08 05:03:23;;;;;;;37.25;21.02;;;18.70;73.80;;;;;;4988940;28;20042;-52
2023/05/08 05:05:59;;;;;;;38.10;20.17;;;18.70;73.90;;;;;;5009527;28;20042;-51
2023/05/08 05:08:29;;;;;;;34.30;20.98;;;18.80;74.20;;;;;;4999190;28;20136;-48
2023/05/08 05:11:02;;;;;;;26.88;20.75;;;18.80;73.90;;;;;;5021831;28;20079;-51
2023/05/08 05:13:29;;;;;;;25.57;20.20;;;18.90;74.00;;;;;;4998701;28;20044;-51
2023/05/08 05:15:59;;;;;;;31.20;21.75;;;18.90;74.00;;;;;;5018961;28;20300;-47
2023/05/08 05:18:28;;;;;;;40.95;22.80;;;19.00;74.00;;;;;;4992157;28;20038;-51
2023/05/08 05:21:00;;;;;;;44.60;23.23;;;19.00;73.80;;;;;;5025989;28;20073;-48
2023/05/08 05:23:29;;;;;;;36.33;22.08;;;19.10;73.90;;;;;;5019824;28;20096;-50
2023/05/08 05:26:02;;;;;;;27.48;21.88;;;19.10;73.70;;;;;;5016352;28;20046;-50
2023/05/08 05:28:30;;;;;;;33.40;21.98;;;19.20;73.70;;;;;;5021825;28;20100;-50
2023/05/08 05:30:57;;;;;;;27.50;21.42;;;19.20;73.60;;;;;;5018017;28;20064;-52
2023/05/08 05:33:27;;;;;;;26.75;22.65;;;19.30;73.60;;;;;;5013941;28;20044;-52
2023/05/08 05:35:54;;;;;;;27.77;22.35;;;19.30;73.40;;;;;;5017451;28;20049;-50
2023/05/08 05:38:21;;;;;;;29.10;22.83;;;19.40;73.20;;;;;;4992337;28;20053;-51
2023/05/08 05:40:48;;;;;;;27.25;23.00;;;19.40;73.10;;;;;;4990548;28;20073;-52
2023/05/08 05:43:21;;;;;;;29.45;22.73;;;19.40;72.90;;;;;;5009697;28;20048;-51
2023/05/08 05:45:50;;;;;;;28.05;22.73;;;19.50;73.00;;;;;;4991451;28;20042;-51
2023/05/08 05:48:18;;;;;;;24.83;20.77;;;19.50;72.90;;;;;;5008192;28;20045;-51
2023/05/08 05:50:50;;;;;;;26.27;21.60;;;19.60;72.90;;;;;;5008462;28;20042;-51
2023/05/08 05:53:24;;;;;;;26.95;21.77;;;19.60;72.90;;;;;;4991571;28;20159;-47
2023/05/08 05:55:54;;;;;;;28.33;21.80;;;19.60;72.80;;;;;;4986851;28;20096;-51
2023/05/08 05:58:21;;;;;;;30.48;23.67;;;19.70;72.80;;;;;;4991918;28;20573;-49
2023/05/08 06:00:50;;;;;;;30.30;21.67;;;19.70;72.80;;;;;;4991623;28;20040;-50
2023/05/08 06:03:19;;;;;;;24.80;21.80;;;19.80;72.90;;;;;;4992541;28;20046;-47
2023/05/08 06:05:54;;;;;;;24.77;21.55;;;19.80;73.00;;;;;;4974577;28;20096;-48
2023/05/08 06:08:31;;;;;;;23.95;20.77;;;19.90;73.00;;;;;;4991573;28;20053;-46
2023/05/08 06:11:01;;;;;;;25.73;21.80;;;20.00;72.90;;;;;;5010429;28;20041;-48
2023/05/08 06:13:30;;;;;;;25.20;21.50;;;20.10;72.50;;;;;;4991730;28;20045;-47
2023/05/08 06:16:00;;;;;;;24.00;21.42;;;20.20;72.30;;;;;;4992801;28;20087;-49
2023/05/08 06:18:31;;;;;;;29.63;23.35;;;20.30;71.90;;;;;;5007606;28;20087;-51
2023/05/08 06:21:09;;;;;;;32.97;25.60;;;20.40;71.70;;;;;;4992070;28;20054;-50
2023/05/08 06:23:44;;;;;;;34.92;27.75;;;20.40;71.40;;;;;;5005226;28;20422;-49
2023/05/08 06:26:11;;;;;;;33.67;28.33;;;20.40;70.90;;;;;;5002655;28;20046;-48
2023/05/08 06:28:37;;;;;;;33.53;27.50;;;20.50;71.60;;;;;;5009142;28;20045;-47
2023/05/08 06:31:08;;;;;;;31.30;26.10;;;20.50;71.00;;;;;;5010355;28;20103;-49
2023/05/08 06:33:35;;;;;;;31.85;26.08;;;20.50;70.90;;;;;;5008925;28;20073;-48
2023/05/08 06:36:05;;;;;;;28.50;24.20;;;20.60;70.90;;;;;;5013926;28;20125;-50
2023/05/08 06:38:31;;;;;;;28.35;24.67;;;20.70;71.00;;;;;;5011599;28;20041;-48
2023/05/08 06:40:58;;;;;;;27.15;24.23;;;20.70;71.00;;;;;;5010618;28;20498;-50
2023/05/08 06:43:27;;;;;;;26.95;24.00;;;20.80;70.60;;;;;;5022151;28;20418;-47
2023/05/08 06:45:56;;;;;;;29.00;24.52;;;20.90;70.20;;;;;;5016298;28;20049;-48
2023/05/08 06:48:27;;;;;;;27.00;23.33;;;21.00;70.10;;;;;;5007965;28;20083;-47
2023/05/08 06:50:58;;;;;;;27.77;24.83;;;21.10;69.80;;;;;;5013507;28;20126;-52
2023/05/08 06:53:27;;;;;;;26.25;23.45;;;21.20;69.50;;;;;;5023956;28;20074;-47
2023/05/08 06:56:01;;;;;;;26.67;22.80;;;21.20;69.00;;;;;;5025405;28;20588;-48
2023/05/08 06:58:30;;;;;;;26.38;23.08;;;21.30;69.00;;;;;;5013843;28;20038;-47
2023/05/08 07:01:00;;;;;;;27.58;23.73;;;21.30;68.90;;;;;;5014112;28;20561;-51
2023/05/08 07:03:28;;;;;;;27.15;23.10;;;21.40;68.60;;;;;;5016824;28;20061;-51
2023/05/08 07:05:57;;;;;;;27.17;23.35;;;21.50;68.50;;;;;;5014933;28;20052;-50
2023/05/08 07:08:28;;;;;;;26.42;22.85;;;21.60;68.60;;;;;;5012754;28;20057;-52
2023/05/08 07:10:58;;;;;;;26.77;22.98;;;21.60;68.70;;;;;;5013008;28;20042;-51
2023/05/08 07:13:25;;;;;;;26.02;23.02;;;21.70;68.40;;;;;;5012819;28;20146;-48
2023/05/08 07:15:51;;;;;;;26.73;22.75;;;21.80;68.00;;;;;;4985698;28;20526;-51
2023/05/08 07:18:21;;;;;;;24.98;22.10;;;21.90;68.00;;;;;;5011001;28;20923;-47
2023/05/08 07:20:48;;;;;;;23.85;21.38;;;22.00;67.90;;;;;;5010357;28;20493;-47
2023/05/08 07:23:15;;;;;;;27.60;23.17;;;22.10;67.40;;;;;;5008350;28;20164;-48
2023/05/08 07:25:44;;;;;;;25.08;22.42;;;22.20;66.90;;;;;;5017641;28;20107;-51
2023/05/08 07:28:16;;;;;;;24.50;21.98;;;22.30;66.50;;;;;;4995401;28;20045;-52
2023/05/08 07:30:47;;;;;;;25.38;22.35;;;22.30;66.40;;;;;;5013713;28;20046;-47
2023/05/08 07:33:15;;;;;;;25.92;21.02;;;22.40;66.40;;;;;;5013672;28;20038;-51
2023/05/08 07:35:42;;;;;;;25.30;22.67;;;22.40;65.90;;;;;;5013865;28;20037;-52
2023/05/08 07:38:11;;;;;;;24.23;21.65;;;22.40;66.50;;;;;;5012917;28;20053;-52
2023/05/08 07:40:38;;;;;;;25.30;21.88;;;22.40;65.90;;;;;;4995009;28;20034;-52
2023/05/08 07:43:04;;;;;;;24.73;22.13;;;22.50;65.90;;;;;;5013694;28;20530;-52
2023/05/08 07:45:31;;;;;;;25.15;21.67;;;22.50;65.80;;;;;;5017468;28;20511;-50
2023/05/08 07:48:02;;;;;;;28.98;22.83;;;22.40;65.80;;;;;;5014495;28;20080;-52
2023/05/08 07:50:30;;;;;;;24.58;21.98;;;22.50;65.60;;;;;;5013233;28;20069;-51
2023/05/08 07:52:59;;;;;;;26.70;22.02;;;22.50;65.80;;;;;;5018290;28;20046;-52
2023/05/08 07:55:33;;;;;;;25.27;22.42;;;22.40;65.60;;;;;;5013577;28;20065;-52
2023/05/08 07:58:00;;;;;;;27.38;24.45;;;22.40;65.50;;;;;;5012143;28;20445;-48
2023/05/08 08:00:30;;;;;;;26.63;23.83;;;22.50;65.00;;;;;;5012431;28;20509;-52
2023/05/08 08:02:59;;;;;;;26.55;23.77;;;22.40;65.00;;;;;;5011702;28;20041;-51
2023/05/08 08:05:28;;;;;;;26.60;23.90;;;22.40;64.80;;;;;;5017188;28;20049;-49
2023/05/08 08:07:57;;;;;;;25.65;23.10;;;22.40;64.80;;;;;;5027606;28;20067;-48
2023/05/08 08:10:27;;;;;;;27.23;24.30;;;22.40;64.90;;;;;;5032525;28;20038;-49
2023/05/08 08:12:53;;;;;;;29.65;26.52;;;22.30;64.90;;;;;;5020057;28;20046;-51
2023/05/08 08:15:20;;;;;;;29.58;26.52;;;22.30;65.30;;;;;;5013366;28;20041;-52
2023/05/08 08:17:49;;;;;;;31.38;28.02;;;22.30;65.00;;;;;;4990898;28;20038;-51
2023/05/08 08:20:15;;;;;;;29.08;26.00;;;22.30;65.10;;;;;;5012931;28;20042;-50
2023/05/08 08:22:44;;;;;;;28.52;25.48;;;22.30;65.50;;;;;;5011985;28;20038;-52
2023/05/08 08:25:15;;;;;;;28.35;24.92;;;22.30;65.50;;;;;;5013318;28;20052;-51
2023/05/08 08:27:45;;;;;;;28.67;25.60;;;22.50;65.50;;;;;;5011804;28;20213;-52
2023/05/08 08:30:17;;;;;;;25.88;23.27;;;22.50;65.30;;;;;;4994578;28;20042;-51
2023/05/08 08:32:45;;;;;;;25.63;22.90;;;22.60;65.10;;;;;;5012534;28;20137;-51
2023/05/08 08:35:12;;;;;;;26.98;23.38;;;22.70;65.20;;;;;;5012783;28;20050;-51
2023/05/08 08:37:39;;;;;;;26.85;24.02;;;22.80;65.40;;;;;;5011309;28;20036;-51
2023/05/08 08:40:06;;;;;;;26.83;23.90;;;23.00;64.90;;;;;;5015564;28;20037;-52
2023/05/08 08:42:33;;;;;;;26.42;23.67;;;23.10;64.60;;;;;;4987651;28;20041;-46
2023/05/08 08:45:05;;;;;;;25.00;22.42;;;23.20;64.10;;;;;;5012438;28;20045;-50
2023/05/08 08:47:45;;;;;;;22.63;20.30;;;23.30;63.40;;;;;;5013307;28;20081;-47
2023/05/08 08:50:13;;;;;;;24.95;20.05;;;23.40;63.20;;;;;;5014040;28;20041;-48
2023/05/08 08:52:47;;;;;;;22.23;19.92;;;23.40;62.80;;;;;;5012445;28;20124;-49
2023/05/08 08:55:18;;;;;;;23.40;20.90;;;23.40;62.70;;;;;;5018245;28;20046;-51
2023/05/08 08:57:56;;;;;;;20.65;18.45;;;23.40;62.20;;;;;;5011439;28;20070;-52
2023/05/08 09:00:29;;;;;;;22.13;19.77;;;23.30;61.60;;;;;;5011421;28;20041;-52
2023/05/08 09:02:56;;;;;;;21.48;19.23;;;23.30;61.60;;;;;;5011746;28;20038;-48
2023/05/08 09:05:25;;;;;;;20.95;18.80;;;23.30;61.90;;;;;;4995654;28;20533;-51
2023/05/08 09:07:55;;;;;;;21.95;19.75;;;23.20;61.80;;;;;;5010917;28;20041;-49
2023/05/08 09:10:23;;;;;;;21.90;19.63;;;23.20;61.60;;;;;;5011007;28;20047;-49
2023/05/08 09:12:53;;;;;;;21.13;18.95;;;23.10;61.60;;;;;;5010619;28;20042;-50
2023/05/08 09:15:20;;;;;;;22.50;20.10;;;23.10;61.50;;;;;;5013083;28;20403;-52
2023/05/08 09:17:47;;;;;;;22.20;19.83;;;23.10;61.60;;;;;;5010782;28;20038;-51
2023/05/08 09:20:14;;;;;;;21.20;18.85;;;23.00;61.50;;;;;;5011490;28;20509;-50
2023/05/08 09:22:42;;;;;;;22.40;20.02;;;22.90;61.70;;;;;;5011152;28;20046;-51
2023/05/08 09:25:13;;;;;;;22.70;20.08;;;22.90;61.80;;;;;;5012831;28;20473;-49
2023/05/08 09:27:40;;;;;;;24.13;21.00;;;22.90;62.00;;;;;;5010484;28;20038;-50
2023/05/08 09:30:09;;;;;;;18.88;16.95;;;23.00;62.30;;;;;;5010701;28;20401;-52
2023/05/08 09:32:39;;;;;;;21.88;19.60;;;23.00;62.80;;;;;;5011330;28;20041;-48
2023/05/08 09:35:08;;;;;;;22.45;20.23;;;23.00;62.50;;;;;;5008877;28;20041;-52
2023/05/08 09:37:38;;;;;;;21.52;19.33;;;23.10;62.50;;;;;;5017369;28;20061;-51
2023/05/08 09:40:19;;;;;;;20.92;18.73;;;23.10;62.20;;;;;;5018534;28;20045;-50
2023/05/08 09:42:49;;;;;;;22.50;20.30;;;23.20;62.50;;;;;;5009789;28;20041;-47
2023/05/08 09:45:34;;;;;;;21.70;19.50;;;23.30;62.80;;;;;;5015844;28;20049;-52
2023/05/08 09:48:00;;;;;;;21.83;19.65;;;23.40;62.40;;;;;;5007289;28;20073;-50
2023/05/08 09:50:27;;;;;;;21.88;17.52;;;23.40;62.00;;;;;;5012371;28;20084;-51
2023/05/08 09:52:55;;;;;;;19.00;17.00;;;23.50;61.70;;;;;;5010619;28;20464;-49
2023/05/08 09:55:22;;;;;;;19.65;17.58;;;23.60;61.40;;;;;;5008950;28;20038;-47
2023/05/08 09:57:57;;;;;;;19.23;17.27;;;23.70;61.10;;;;;;5010241;28;20528;-48
2023/05/08 10:00:28;;;;;;;17.40;15.60;;;23.80;60.60;;;;;;5009308;28;20050;-47
2023/05/08 10:03:00;;;;;;;16.70;14.88;;;23.90;60.30;;;;;;5011296;28;20041;-51
2023/05/08 10:05:34;;;;;;;14.82;13.45;;;24.00;59.70;;;;;;5002335;28;20084;-48
2023/05/08 10:08:22;;;;;;;16.17;14.48;;;24.10;59.30;;;;;;5009037;28;20050;-53
2023/05/08 10:10:49;;;;;;;18.77;16.85;;;24.20;59.30;;;;;;5010329;28;20430;-51
2023/05/08 10:13:16;;;;;;;16.48;14.38;;;24.20;59.60;;;;;;5017798;28;20048;-51
2023/05/08 10:15:44;;;;;;;17.58;15.90;;;24.30;59.40;;;;;;5011719;28;20045;-52
2023/05/08 10:18:16;;;;;;;16.00;14.50;;;24.50;59.10;;;;;;5011533;28;20053;-52
2023/05/08 10:20:47;;;;;;;14.80;13.30;;;24.60;58.60;;;;;;5013756;28;20041;-49
2023/05/08 10:23:16;;;;;;;15.07;13.68;;;24.70;58.30;;;;;;5011882;28;20454;-51
2023/05/08 10:25:45;;;;;;;15.40;14.05;;;24.80;57.90;;;;;;5011820;28;20034;-48
2023/05/08 10:28:43;;;;;;;14.85;13.38;;;25.00;58.00;;;;;;5010982;28;20052;-52
2023/05/08 10:31:14;;;;;;;13.63;12.32;;;25.10;57.30;;;;;;4990639;28;20132;-52
2023/05/08 10:33:50;;;;;;;14.27;13.00;;;25.20;57.10;;;;;;5013258;28;20084;-51
2023/05/08 10:36:18;;;;;;;14.25;12.95;;;25.30;56.70;;;;;;5009959;28;20046;-52
2023/05/08 10:38:46;;;;;;;13.40;12.07;;;25.40;56.10;;;;;;5009317;28;20045;-49
2023/05/08 10:41:13;;;;;;;12.85;11.65;;;25.40;55.70;;;;;;5010621;28;20468;-48
2023/05/08 10:43:44;;;;;;;14.07;12.85;;;25.40;55.30;;;;;;4991728;28;20045;-50
2023/05/08 10:46:29;;;;;;;11.35;10.40;;;25.40;55.30;;;;;;5009675;28;20112;-48
2023/05/08 10:49:34;;;;;;;9.13;8.43;;;25.40;54.20;;;;;;5010714;28;20092;-47
2023/05/08 10:52:29;;;;;;;8.98;8.20;;;25.40;54.00;;;;;;5005512;28;20037;-51
2023/05/08 10:55:03;;;;;;;8.60;7.80;;;25.30;54.10;;;;;;4998104;28;20049;-48
2023/05/08 10:57:30;;;;;;;10.80;9.80;;;25.20;54.70;;;;;;5007580;28;20042;-51
2023/05/08 10:59:59;;;;;;;13.88;12.55;;;25.10;54.70;;;;;;5008947;28;20053;-48
2023/05/08 11:02:30;;;;;;;14.32;13.13;;;25.00;55.00;;;;;;5011900;28;20049;-50
2023/05/08 11:05:14;;;;;;;13.23;12.10;;;24.90;54.60;;;;;;4990262;28;20058;-48
2023/05/08 11:07:55;;;;;;;13.52;12.32;;;24.80;54.70;;;;;;5008590;28;20498;-50
2023/05/08 11:10:30;;;;;;;14.75;13.35;;;24.70;54.80;;;;;;5010073;28;20124;-51
2023/05/08 11:12:59;;;;;;;14.63;13.23;;;24.60;54.70;;;;;;5007922;28;20145;-47
2023/05/08 11:15:37;;;;;;;14.35;13.05;;;24.50;55.50;;;;;;5009017;28;20108;-50
2023/05/08 11:18:10;;;;;;;15.27;13.88;;;24.40;56.00;;;;;;4988856;28;20556;-50
2023/05/08 11:20:41;;;;;;;15.25;13.85;;;24.30;56.20;;;;;;5007040;28;20120;-51
2023/05/08 11:23:22;;;;;;;15.68;14.15;;;24.30;56.10;;;;;;5005869;28;20038;-50
2023/05/08 11:26:13;;;;;;;19.27;17.42;;;24.20;56.90;;;;;;5012404;28;20445;-51
2023/05/08 11:28:55;;;;;;;23.42;20.95;;;24.10;57.20;;;;;;5006218;28;20042;-48
2023/05/08 11:31:52;;;;;;;24.92;22.20;;;24.00;57.70;;;;;;5008580;28;20053;-51
2023/05/08 11:34:43;;;;;;;26.95;21.58;;;23.90;58.00;;;;;;5008990;28;20205;-47
2023/05/08 11:37:21;;;;;;;26.83;22.70;;;23.80;58.80;;;;;;5008568;28;20113;-47
2023/05/08 11:39:50;;;;;;;28.10;23.80;;;23.70;59.40;;;;;;5009686;28;20034;-48
2023/05/08 11:42:28;;;;;;;29.83;25.67;;;23.50;59.50;;;;;;5010728;28;20060;-49
2023/05/08 11:45:07;;;;;;;29.92;24.27;;;23.50;60.00;;;;;;5009046;28;20551;-47
2023/05/08 11:47:41;;;;;;;29.52;24.95;;;23.40;60.40;;;;;;5015072;28;20116;-49
2023/05/08 11:50:12;;;;;;;33.90;25.67;;;23.30;60.70;;;;;;5015339;28;20143;-48
2023/05/08 11:52:40;;;;;;;32.30;25.05;;;23.20;60.80;;;;;;4996330;28;20045;-46
2023/05/08 11:55:11;;;;;;;31.73;25.08;;;23.10;61.30;;;;;;5012493;28;20045;-50
2023/05/08 11:57:38;;;;;;;30.30;24.08;;;23.00;61.30;;;;;;5011975;28;20038;-49
2023/05/08 12:00:11;;;;;;;33.33;25.85;;;22.90;61.90;;;;;;5013291;28;20045;-52
2023/05/08 12:02:44;;;;;;;33.40;26.52;;;22.90;62.40;;;;;;5013893;28;20410;-48
2023/05/08 12:05:14;;;;;;;34.40;25.83;;;22.80;62.40;;;;;;5012000;28;20121;-48
2023/05/08 12:07:49;;;;;;;31.90;25.35;;;22.80;62.40;;;;;;5011651;28;20049;-51
2023/05/08 12:10:18;;;;;;;31.93;24.83;;;22.80;62.10;;;;;;5013223;28;20046;-48
2023/05/08 12:12:48;;;;;;;30.65;25.17;;;22.70;62.40;;;;;;5014835;28;20303;-50
2023/05/08 12:15:15;;;;;;;30.85;25.23;;;22.70;62.90;;;;;;5010445;28;20506;-51
2023/05/08 12:17:48;;;;;;;33.95;25.45;;;22.70;62.70;;;;;;5007334;28;20531;-51
2023/05/08 12:20:18;;;;;;;36.20;26.40;;;22.80;63.00;;;;;;5012869;28;20121;-51
2023/05/08 12:22:52;;;;;;;32.83;26.83;;;22.80;63.20;;;;;;5012097;28;20084;-50
2023/05/08 12:25:19;;;;;;;31.13;25.60;;;22.80;63.20;;;;;;5017595;28;20052;-51
2023/05/08 12:27:48;;;;;;;28.95;25.80;;;22.90;62.70;;;;;;5014691;28;20049;-51
2023/05/08 12:30:15;;;;;;;32.28;25.92;;;22.90;63.30;;;;;;5012749;28;20049;-48
2023/05/08 12:32:43;;;;;;;34.08;27.15;;;23.00;62.80;;;;;;5012928;28;20084;-48
2023/05/08 12:35:14;;;;;;;32.00;25.35;;;23.10;63.20;;;;;;5012151;28;20045;-51
2023/05/08 12:37:45;;;;;;;30.15;24.65;;;23.10;62.90;;;;;;5015621;28;20041;-49
2023/05/08 12:40:29;;;;;;;32.58;26.05;;;23.20;62.30;;;;;;5012597;28;20657;-50
2023/05/08 12:43:01;;;;;;;32.95;24.65;;;23.20;62.50;;;;;;5017358;28;20034;-50
2023/05/08 12:45:29;;;;;;;;;;;23.20;62.60;;;;;;5019949;28;20053;-49
2023/05/08 12:48:01;;;;;;;28.73;23.00;;;23.30;62.40;;;;;;5010058;28;19921;-48
2023/05/08 12:50:32;;;;;;;28.52;24.35;;;23.30;62.20;;;;;;5014290;28;20104;-51
2023/05/08 12:53:28;;;;;;;29.13;24.08;;;23.30;62.00;;;;;;5012262;28;20052;-51
2023/05/08 12:55:57;;;;;;;27.73;23.92;;;23.30;62.40;;;;;;5010159;28;20506;-47
2023/05/08 12:58:29;;;;;;;27.30;23.67;;;23.30;62.50;;;;;;5010848;28;20092;-50